sensor_id;sensor_type;location;lat;lon;timestamp;P1;durP1;ratioP1;P2;durP2;ratioP2
15228;SDS011;7717;47.792;12.076;2022-09-30T00:01:29;8.53;;;7.63;;
15228;SDS011;7717;47.792;12.076;2022-09-30T00:03:56;7.77;;;6.97;;
15228;SDS011;7717;47.792;12.076;2022-09-30T00:06:22;8.47;;;7.23;;
15228;SDS011;7717;47.792;12.076;2022-09-30T00:08:49;6.50;;;5.80;;
15228;SDS011;7717;47.792;12.076;2022-09-30T00:11:16;8.57;;;7.30;;
15228;SDS011;7717;47.792;12.076;2022-09-30T00:13:44;9.17;;;6.43;;
15228;SDS011;7717;47.792;12.076;2022-09-30T00:16:12;8.30;;;6.67;;
15228;SDS011;7717;47.792;12.076;2022-09-30T00:18:39;7.93;;;7.13;;
15228;SDS011;7717;47.792;12.076;2022-09-30T00:21:05;8.73;;;7.33;;
15228;SDS011;7717;47.792;12.076;2022-09-30T00:23:32;9.17;;;6.77;;
15228;SDS011;7717;47.792;12.076;2022-09-30T00:26:02;8.23;;;7.40;;
15228;SDS011;7717;47.792;12.076;2022-09-30T00:28:29;9.00;;;7.33;;
15228;SDS011;7717;47.792;12.076;2022-09-30T00:30:59;8.27;;;7.23;;
15228;SDS011;7717;47.792;12.076;2022-09-30T00:33:25;9.43;;;7.63;;
15228;SDS011;7717;47.792;12.076;2022-09-30T00:35:51;10.37;;;8.37;;
15228;SDS011;7717;47.792;12.076;2022-09-30T00:38:16;9.50;;;7.63;;
15228;SDS011;7717;47.792;12.076;2022-09-30T00:40:42;9.53;;;7.10;;
15228;SDS011;7717;47.792;12.076;2022-09-30T00:43:15;7.70;;;6.90;;
15228;SDS011;7717;47.792;12.076;2022-09-30T00:45:46;8.47;;;6.80;;
15228;SDS011;7717;47.792;12.076;2022-09-30T00:48:14;7.37;;;6.67;;
15228;SDS011;7717;47.792;12.076;2022-09-30T00:50:46;8.37;;;6.73;;
15228;SDS011;7717;47.792;12.076;2022-09-30T00:53:21;8.20;;;7.13;;
15228;SDS011;7717;47.792;12.076;2022-09-30T00:58:43;9.00;;;6.73;;
15228;SDS011;7717;47.792;12.076;2022-09-30T01:01:11;10.53;;;7.00;;
15228;SDS011;7717;47.792;12.076;2022-09-30T01:03:49;9.13;;;7.33;;
15228;SDS011;7717;47.792;12.076;2022-09-30T01:06:19;8.80;;;7.73;;
15228;SDS011;7717;47.792;12.076;2022-09-30T01:08:46;8.83;;;7.30;;
15228;SDS011;7717;47.792;12.076;2022-09-30T01:11:12;10.00;;;7.43;;
15228;SDS011;7717;47.792;12.076;2022-09-30T01:13:38;11.20;;;7.97;;
15228;SDS011;7717;47.792;12.076;2022-09-30T01:18:42;9.77;;;8.43;;
15228;SDS011;7717;47.792;12.076;2022-09-30T01:30:37;9.10;;;8.17;;
15228;SDS011;7717;47.792;12.076;2022-09-30T01:33:19;9.90;;;8.87;;
15228;SDS011;7717;47.792;12.076;2022-09-30T01:44:34;9.50;;;7.97;;
15228;SDS011;7717;47.792;12.076;2022-09-30T01:52:28;10.80;;;8.63;;
15228;SDS011;7717;47.792;12.076;2022-09-30T02:00:11;10.87;;;7.93;;
15228;SDS011;7717;47.792;12.076;2022-09-30T02:08:29;8.80;;;7.90;;
15228;SDS011;7717;47.792;12.076;2022-09-30T02:10:57;9.83;;;7.77;;
15228;SDS011;7717;47.792;12.076;2022-09-30T02:13:34;9.73;;;8.23;;
15228;SDS011;7717;47.792;12.076;2022-09-30T02:16:06;9.20;;;7.40;;
15228;SDS011;7717;47.792;12.076;2022-09-30T02:18:47;9.27;;;7.70;;
15228;SDS011;7717;47.792;12.076;2022-09-30T02:21:18;8.57;;;7.60;;
15228;SDS011;7717;47.792;12.076;2022-09-30T02:23:51;7.77;;;6.50;;
15228;SDS011;7717;47.792;12.076;2022-09-30T02:26:24;9.20;;;6.50;;
15228;SDS011;7717;47.792;12.076;2022-09-30T02:28:55;7.73;;;5.93;;
15228;SDS011;7717;47.792;12.076;2022-09-30T02:31:28;7.37;;;6.33;;
15228;SDS011;7717;47.792;12.076;2022-09-30T02:33:59;7.17;;;6.13;;
15228;SDS011;7717;47.792;12.076;2022-09-30T02:36:39;7.90;;;6.30;;
15228;SDS011;7717;47.792;12.076;2022-09-30T02:39:21;6.97;;;6.27;;
15228;SDS011;7717;47.792;12.076;2022-09-30T02:41:51;7.57;;;6.00;;
15228;SDS011;7717;47.792;12.076;2022-09-30T02:44:23;7.80;;;6.77;;
15228;SDS011;7717;47.792;12.076;2022-09-30T02:46:55;7.37;;;6.67;;
15228;SDS011;7717;47.792;12.076;2022-09-30T02:49:31;9.53;;;6.53;;
15228;SDS011;7717;47.792;12.076;2022-09-30T02:55:02;7.47;;;6.67;;
15228;SDS011;7717;47.792;12.076;2022-09-30T02:57:54;7.77;;;6.10;;
15228;SDS011;7717;47.792;12.076;2022-09-30T03:00:29;7.03;;;6.33;;
15228;SDS011;7717;47.792;12.076;2022-09-30T03:02:57;8.23;;;6.43;;
15228;SDS011;7717;47.792;12.076;2022-09-30T03:05:27;8.73;;;7.53;;
15228;SDS011;7717;47.792;12.076;2022-09-30T03:07:53;8.43;;;6.83;;
15228;SDS011;7717;47.792;12.076;2022-09-30T03:10:19;8.30;;;6.53;;
15228;SDS011;7717;47.792;12.076;2022-09-30T03:21:05;7.23;;;6.53;;
15228;SDS011;7717;47.792;12.076;2022-09-30T03:48:32;8.90;;;7.10;;
15228;SDS011;7717;47.792;12.076;2022-09-30T03:50:59;8.27;;;6.83;;
15228;SDS011;7717;47.792;12.076;2022-09-30T03:53:25;10.37;;;7.40;;
15228;SDS011;7717;47.792;12.076;2022-09-30T03:55:52;8.50;;;7.00;;
15228;SDS011;7717;47.792;12.076;2022-09-30T03:58:19;9.97;;;7.30;;
15228;SDS011;7717;47.792;12.076;2022-09-30T04:00:48;9.87;;;7.83;;
15228;SDS011;7717;47.792;12.076;2022-09-30T04:03:15;8.67;;;7.10;;
15228;SDS011;7717;47.792;12.076;2022-09-30T04:05:42;9.37;;;6.97;;
15228;SDS011;7717;47.792;12.076;2022-09-30T04:08:08;7.77;;;6.80;;
15228;SDS011;7717;47.792;12.076;2022-09-30T04:10:33;10.13;;;7.87;;
15228;SDS011;7717;47.792;12.076;2022-09-30T04:12:59;10.23;;;7.43;;
15228;SDS011;7717;47.792;12.076;2022-09-30T04:15:25;8.67;;;6.90;;
15228;SDS011;7717;47.792;12.076;2022-09-30T04:17:51;9.20;;;7.23;;
15228;SDS011;7717;47.792;12.076;2022-09-30T04:20:16;8.43;;;6.70;;
15228;SDS011;7717;47.792;12.076;2022-09-30T04:22:42;9.10;;;7.90;;
15228;SDS011;7717;47.792;12.076;2022-09-30T04:25:07;19.10;;;11.43;;
15228;SDS011;7717;47.792;12.076;2022-09-30T04:27:33;34.73;;;19.40;;
15228;SDS011;7717;47.792;12.076;2022-09-30T04:29:58;25.27;;;16.93;;
15228;SDS011;7717;47.792;12.076;2022-09-30T04:32:23;24.87;;;15.73;;
15228;SDS011;7717;47.792;12.076;2022-09-30T04:34:50;17.43;;;11.10;;
15228;SDS011;7717;47.792;12.076;2022-09-30T04:37:15;13.00;;;8.80;;
15228;SDS011;7717;47.792;12.076;2022-09-30T04:39:41;7.70;;;6.90;;
15228;SDS011;7717;47.792;12.076;2022-09-30T04:42:06;17.10;;;11.57;;
15228;SDS011;7717;47.792;12.076;2022-09-30T04:44:32;14.70;;;10.70;;
15228;SDS011;7717;47.792;12.076;2022-09-30T04:46:59;11.20;;;8.80;;
15228;SDS011;7717;47.792;12.076;2022-09-30T04:49:24;11.03;;;9.40;;
15228;SDS011;7717;47.792;12.076;2022-09-30T04:51:50;12.87;;;9.33;;
15228;SDS011;7717;47.792;12.076;2022-09-30T04:54:15;11.83;;;8.10;;
15228;SDS011;7717;47.792;12.076;2022-09-30T04:56:41;9.97;;;8.07;;
15228;SDS011;7717;47.792;12.076;2022-09-30T04:59:06;12.67;;;8.40;;
15228;SDS011;7717;47.792;12.076;2022-09-30T05:01:32;11.87;;;8.83;;
15228;SDS011;7717;47.792;12.076;2022-09-30T05:03:57;13.10;;;8.53;;
15228;SDS011;7717;47.792;12.076;2022-09-30T05:06:22;9.70;;;7.40;;
15228;SDS011;7717;47.792;12.076;2022-09-30T05:08:48;9.57;;;7.57;;
15228;SDS011;7717;47.792;12.076;2022-09-30T05:11:15;10.30;;;8.40;;
15228;SDS011;7717;47.792;12.076;2022-09-30T05:13:42;10.97;;;9.00;;
15228;SDS011;7717;47.792;12.076;2022-09-30T05:16:08;11.57;;;8.67;;
15228;SDS011;7717;47.792;12.076;2022-09-30T05:18:34;9.93;;;8.20;;
15228;SDS011;7717;47.792;12.076;2022-09-30T05:21:01;9.17;;;6.50;;
15228;SDS011;7717;47.792;12.076;2022-09-30T05:23:28;6.27;;;5.67;;
15228;SDS011;7717;47.792;12.076;2022-09-30T05:25:55;6.50;;;5.53;;
15228;SDS011;7717;47.792;12.076;2022-09-30T05:28:21;5.10;;;4.60;;
15228;SDS011;7717;47.792;12.076;2022-09-30T05:30:48;7.40;;;5.93;;
15228;SDS011;7717;47.792;12.076;2022-09-30T05:33:18;7.00;;;6.30;;
15228;SDS011;7717;47.792;12.076;2022-09-30T05:35:43;20.77;;;13.23;;
15228;SDS011;7717;47.792;12.076;2022-09-30T05:38:09;12.53;;;9.03;;
15228;SDS011;7717;47.792;12.076;2022-09-30T05:40:37;8.87;;;7.30;;
15228;SDS011;7717;47.792;12.076;2022-09-30T05:43:04;10.17;;;7.80;;
15228;SDS011;7717;47.792;12.076;2022-09-30T05:45:29;9.53;;;7.63;;
15228;SDS011;7717;47.792;12.076;2022-09-30T05:47:54;11.33;;;8.53;;
15228;SDS011;7717;47.792;12.076;2022-09-30T05:50:21;10.10;;;8.23;;
15228;SDS011;7717;47.792;12.076;2022-09-30T05:52:48;10.10;;;8.80;;
15228;SDS011;7717;47.792;12.076;2022-09-30T05:55:14;8.03;;;7.23;;
15228;SDS011;7717;47.792;12.076;2022-09-30T05:57:40;8.10;;;7.27;;
15228;SDS011;7717;47.792;12.076;2022-09-30T06:00:07;7.30;;;6.57;;
15228;SDS011;7717;47.792;12.076;2022-09-30T06:02:33;8.90;;;6.40;;
15228;SDS011;7717;47.792;12.076;2022-09-30T06:05:02;8.27;;;7.47;;
15228;SDS011;7717;47.792;12.076;2022-09-30T06:07:32;10.50;;;8.27;;
15228;SDS011;7717;47.792;12.076;2022-09-30T06:09:58;6.57;;;5.47;;
15228;SDS011;7717;47.792;12.076;2022-09-30T06:12:24;6.63;;;5.97;;
15228;SDS011;7717;47.792;12.076;2022-09-30T06:14:51;7.27;;;6.43;;
15228;SDS011;7717;47.792;12.076;2022-09-30T06:17:16;7.83;;;6.03;;
15228;SDS011;7717;47.792;12.076;2022-09-30T06:19:43;8.57;;;6.70;;
15228;SDS011;7717;47.792;12.076;2022-09-30T06:22:08;6.83;;;6.13;;
15228;SDS011;7717;47.792;12.076;2022-09-30T06:24:34;7.23;;;6.07;;
15228;SDS011;7717;47.792;12.076;2022-09-30T06:26:59;6.73;;;6.03;;
15228;SDS011;7717;47.792;12.076;2022-09-30T06:29:25;8.50;;;7.47;;
15228;SDS011;7717;47.792;12.076;2022-09-30T06:31:50;7.33;;;6.60;;
15228;SDS011;7717;47.792;12.076;2022-09-30T06:34:15;8.17;;;6.67;;
15228;SDS011;7717;47.792;12.076;2022-09-30T06:36:41;6.33;;;5.43;;
15228;SDS011;7717;47.792;12.076;2022-09-30T06:39:06;7.67;;;6.13;;
15228;SDS011;7717;47.792;12.076;2022-09-30T06:41:31;6.93;;;6.23;;
15228;SDS011;7717;47.792;12.076;2022-09-30T06:43:57;9.80;;;6.83;;
15228;SDS011;7717;47.792;12.076;2022-09-30T06:46:23;8.03;;;6.40;;
15228;SDS011;7717;47.792;12.076;2022-09-30T06:48:52;8.53;;;6.40;;
15228;SDS011;7717;47.792;12.076;2022-09-30T06:51:18;8.17;;;6.53;;
15228;SDS011;7717;47.792;12.076;2022-09-30T06:53:44;9.60;;;7.30;;
15228;SDS011;7717;47.792;12.076;2022-09-30T06:56:10;12.87;;;8.77;;
15228;SDS011;7717;47.792;12.076;2022-09-30T06:58:35;10.63;;;8.07;;
15228;SDS011;7717;47.792;12.076;2022-09-30T07:01:02;10.63;;;7.53;;
15228;SDS011;7717;47.792;12.076;2022-09-30T07:03:31;10.10;;;7.50;;
15228;SDS011;7717;47.792;12.076;2022-09-30T07:06:00;9.90;;;7.33;;
15228;SDS011;7717;47.792;12.076;2022-09-30T07:08:27;10.97;;;7.53;;
15228;SDS011;7717;47.792;12.076;2022-09-30T07:10:56;8.97;;;7.87;;
15228;SDS011;7717;47.792;12.076;2022-09-30T07:13:22;7.57;;;6.40;;
15228;SDS011;7717;47.792;12.076;2022-09-30T07:15:48;8.57;;;7.07;;
15228;SDS011;7717;47.792;12.076;2022-09-30T07:18:16;7.80;;;6.73;;
15228;SDS011;7717;47.792;12.076;2022-09-30T07:20:50;7.20;;;6.47;;
15228;SDS011;7717;47.792;12.076;2022-09-30T07:23:17;6.67;;;5.97;;
15228;SDS011;7717;47.792;12.076;2022-09-30T07:25:53;9.57;;;8.60;;
15228;SDS011;7717;47.792;12.076;2022-09-30T07:28:25;7.10;;;6.40;;
15228;SDS011;7717;47.792;12.076;2022-09-30T07:30:56;7.27;;;6.57;;
15228;SDS011;7717;47.792;12.076;2022-09-30T07:33:23;5.60;;;5.10;;
15228;SDS011;7717;47.792;12.076;2022-09-30T07:35:52;5.87;;;5.30;;
15228;SDS011;7717;47.792;12.076;2022-09-30T07:38:20;7.63;;;5.13;;
15228;SDS011;7717;47.792;12.076;2022-09-30T07:40:58;5.63;;;4.73;;
15228;SDS011;7717;47.792;12.076;2022-09-30T07:43:26;6.17;;;5.60;;
15228;SDS011;7717;47.792;12.076;2022-09-30T07:46:02;6.10;;;5.60;;
15228;SDS011;7717;47.792;12.076;2022-09-30T07:48:57;6.03;;;5.43;;
15228;SDS011;7717;47.792;12.076;2022-09-30T07:51:33;4.27;;;3.77;;
15228;SDS011;7717;47.792;12.076;2022-09-30T07:54:05;4.60;;;4.20;;
15228;SDS011;7717;47.792;12.076;2022-09-30T07:56:33;4.47;;;4.07;;
15228;SDS011;7717;47.792;12.076;2022-09-30T07:58:59;5.00;;;4.07;;
15228;SDS011;7717;47.792;12.076;2022-09-30T08:01:27;4.17;;;3.80;;
15228;SDS011;7717;47.792;12.076;2022-09-30T08:03:54;4.60;;;4.20;;
15228;SDS011;7717;47.792;12.076;2022-09-30T08:06:21;5.50;;;4.23;;
15228;SDS011;7717;47.792;12.076;2022-09-30T08:08:49;3.90;;;3.60;;
15228;SDS011;7717;47.792;12.076;2022-09-30T08:11:16;4.00;;;3.70;;
15228;SDS011;7717;47.792;12.076;2022-09-30T08:13:42;4.30;;;3.90;;
15228;SDS011;7717;47.792;12.076;2022-09-30T08:16:07;3.93;;;3.53;;
15228;SDS011;7717;47.792;12.076;2022-09-30T08:18:33;4.40;;;4.00;;
15228;SDS011;7717;47.792;12.076;2022-09-30T08:21:02;4.97;;;3.77;;
15228;SDS011;7717;47.792;12.076;2022-09-30T08:23:31;4.53;;;3.80;;
15228;SDS011;7717;47.792;12.076;2022-09-30T08:26:01;6.77;;;4.33;;
15228;SDS011;7717;47.792;12.076;2022-09-30T08:28:33;5.20;;;4.70;;
15228;SDS011;7717;47.792;12.076;2022-09-30T08:31:32;4.67;;;4.27;;
15228;SDS011;7717;47.792;12.076;2022-09-30T08:33:52;4.13;;;3.83;;
15228;SDS011;7717;47.792;12.076;2022-09-30T08:36:21;4.33;;;3.93;;
15228;SDS011;7717;47.792;12.076;2022-09-30T08:38:49;4.47;;;3.77;;
15228;SDS011;7717;47.792;12.076;2022-09-30T08:41:36;4.00;;;3.70;;
15228;SDS011;7717;47.792;12.076;2022-09-30T08:46:58;4.37;;;3.97;;
15228;SDS011;7717;47.792;12.076;2022-09-30T08:52:21;4.47;;;4.07;;
15228;SDS011;7717;47.792;12.076;2022-09-30T08:54:55;4.27;;;3.80;;
15228;SDS011;7717;47.792;12.076;2022-09-30T08:57:22;4.80;;;4.07;;
15228;SDS011;7717;47.792;12.076;2022-09-30T08:59:55;4.00;;;3.60;;
15228;SDS011;7717;47.792;12.076;2022-09-30T09:16:33;5.13;;;4.63;;
15228;SDS011;7717;47.792;12.076;2022-09-30T09:19:14;7.17;;;6.47;;
15228;SDS011;7717;47.792;12.076;2022-09-30T09:21:56;16.10;;;11.50;;
15228;SDS011;7717;47.792;12.076;2022-09-30T09:24:26;6.93;;;5.80;;
15228;SDS011;7717;47.792;12.076;2022-09-30T09:27:02;4.27;;;3.87;;
15228;SDS011;7717;47.792;12.076;2022-09-30T09:32:31;9.37;;;5.93;;
15228;SDS011;7717;47.792;12.076;2022-09-30T09:37:58;3.40;;;3.10;;
15228;SDS011;7717;47.792;12.076;2022-09-30T09:46:21;2.23;;;2.13;;
15228;SDS011;7717;47.792;12.076;2022-09-30T09:51:39;2.50;;;2.30;;
15228;SDS011;7717;47.792;12.076;2022-09-30T09:54:12;2.00;;;1.90;;
15228;SDS011;7717;47.792;12.076;2022-09-30T09:56:39;2.10;;;2.00;;
15228;SDS011;7717;47.792;12.076;2022-09-30T09:59:15;1.60;;;1.50;;
15228;SDS011;7717;47.792;12.076;2022-09-30T10:01:45;1.63;;;1.53;;
15228;SDS011;7717;47.792;12.076;2022-09-30T10:04:18;1.67;;;1.57;;
15228;SDS011;7717;47.792;12.076;2022-09-30T10:14:48;1.73;;;1.10;;
15228;SDS011;7717;47.792;12.076;2022-09-30T10:17:20;1.67;;;1.40;;
15228;SDS011;7717;47.792;12.076;2022-09-30T10:19:51;2.00;;;1.47;;
15228;SDS011;7717;47.792;12.076;2022-09-30T10:22:19;1.70;;;1.60;;
15228;SDS011;7717;47.792;12.076;2022-09-30T10:24:51;1.67;;;1.40;;
15228;SDS011;7717;47.792;12.076;2022-09-30T10:29:55;3.07;;;2.77;;
15228;SDS011;7717;47.792;12.076;2022-09-30T10:32:21;2.13;;;2.03;;
15228;SDS011;7717;47.792;12.076;2022-09-30T10:34:53;1.93;;;1.83;;
15228;SDS011;7717;47.792;12.076;2022-09-30T10:37:23;2.53;;;1.83;;
15228;SDS011;7717;47.792;12.076;2022-09-30T10:39:59;2.60;;;1.80;;
15228;SDS011;7717;47.792;12.076;2022-09-30T10:42:32;1.53;;;1.43;;
15228;SDS011;7717;47.792;12.076;2022-09-30T10:45:06;2.00;;;1.50;;
15228;SDS011;7717;47.792;12.076;2022-09-30T10:47:44;2.20;;;2.10;;
15228;SDS011;7717;47.792;12.076;2022-09-30T10:50:14;2.13;;;2.03;;
15228;SDS011;7717;47.792;12.076;2022-09-30T10:52:50;2.17;;;2.07;;
15228;SDS011;7717;47.792;12.076;2022-09-30T10:55:40;1.67;;;1.57;;
15228;SDS011;7717;47.792;12.076;2022-09-30T11:04:16;1.63;;;1.53;;
15228;SDS011;7717;47.792;12.076;2022-09-30T11:07:20;3.20;;;2.87;;
15228;SDS011;7717;47.792;12.076;2022-09-30T11:12:49;2.70;;;2.50;;
15228;SDS011;7717;47.792;12.076;2022-09-30T11:17:58;3.07;;;2.20;;
15228;SDS011;7717;47.792;12.076;2022-09-30T11:33:42;2.20;;;1.80;;
15228;SDS011;7717;47.792;12.076;2022-09-30T11:36:16;2.43;;;2.20;;
15228;SDS011;7717;47.792;12.076;2022-09-30T11:38:51;3.23;;;2.50;;
15228;SDS011;7717;47.792;12.076;2022-09-30T11:41:45;1.90;;;1.80;;
15228;SDS011;7717;47.792;12.076;2022-09-30T11:47:05;1.80;;;1.70;;
15228;SDS011;7717;47.792;12.076;2022-09-30T11:49:50;1.87;;;1.77;;
15228;SDS011;7717;47.792;12.076;2022-09-30T11:58:33;2.30;;;2.10;;
15228;SDS011;7717;47.792;12.076;2022-09-30T12:01:24;1.83;;;1.73;;
15228;SDS011;7717;47.792;12.076;2022-09-30T12:04:13;2.40;;;2.20;;
15228;SDS011;7717;47.792;12.076;2022-09-30T12:06:43;1.93;;;1.70;;
15228;SDS011;7717;47.792;12.076;2022-09-30T12:09:22;2.63;;;2.43;;
15228;SDS011;7717;47.792;12.076;2022-09-30T12:11:55;3.53;;;1.73;;
15228;SDS011;7717;47.792;12.076;2022-09-30T12:14:37;2.60;;;1.83;;
15228;SDS011;7717;47.792;12.076;2022-09-30T12:20:06;3.13;;;1.80;;
15228;SDS011;7717;47.792;12.076;2022-09-30T12:22:41;1.60;;;1.50;;
15228;SDS011;7717;47.792;12.076;2022-09-30T12:30:21;1.47;;;1.37;;
15228;SDS011;7717;47.792;12.076;2022-09-30T12:49:13;1.60;;;1.50;;
15228;SDS011;7717;47.792;12.076;2022-09-30T12:51:44;1.50;;;1.40;;
15228;SDS011;7717;47.792;12.076;2022-09-30T12:56:43;1.63;;;1.53;;
15228;SDS011;7717;47.792;12.076;2022-09-30T12:59:11;1.67;;;1.57;;
15228;SDS011;7717;47.792;12.076;2022-09-30T13:01:38;1.50;;;1.40;;
15228;SDS011;7717;47.792;12.076;2022-09-30T13:11:42;1.90;;;1.30;;
15228;SDS011;7717;47.792;12.076;2022-09-30T13:14:21;1.40;;;1.30;;
15228;SDS011;7717;47.792;12.076;2022-09-30T13:19:35;1.60;;;1.50;;
15228;SDS011;7717;47.792;12.076;2022-09-30T13:27:35;1.97;;;1.30;;
15228;SDS011;7717;47.792;12.076;2022-09-30T13:35:35;1.70;;;1.60;;
15228;SDS011;7717;47.792;12.076;2022-09-30T13:38:16;1.53;;;1.43;;
15228;SDS011;7717;47.792;12.076;2022-09-30T13:40:46;1.30;;;1.23;;
15228;SDS011;7717;47.792;12.076;2022-09-30T13:43:56;1.80;;;1.70;;
15228;SDS011;7717;47.792;12.076;2022-09-30T13:46:10;1.93;;;1.70;;
15228;SDS011;7717;47.792;12.076;2022-09-30T13:48:37;1.90;;;1.70;;
15228;SDS011;7717;47.792;12.076;2022-09-30T13:51:07;2.70;;;1.50;;
15228;SDS011;7717;47.792;12.076;2022-09-30T13:53:43;1.50;;;1.40;;
15228;SDS011;7717;47.792;12.076;2022-09-30T13:56:17;3.23;;;1.80;;
15228;SDS011;7717;47.792;12.076;2022-09-30T14:24:00;12.60;;;6.73;;
15228;SDS011;7717;47.792;12.076;2022-09-30T14:35:16;1.83;;;1.37;;
15228;SDS011;7717;47.792;12.076;2022-09-30T14:37:45;2.30;;;2.10;;
15228;SDS011;7717;47.792;12.076;2022-09-30T14:40:15;2.40;;;1.97;;
15228;SDS011;7717;47.792;12.076;2022-09-30T14:42:43;1.27;;;1.20;;
15228;SDS011;7717;47.792;12.076;2022-09-30T14:45:14;2.07;;;1.40;;
15228;SDS011;7717;47.792;12.076;2022-09-30T14:47:46;1.53;;;1.43;;
15228;SDS011;7717;47.792;12.076;2022-09-30T14:50:18;1.80;;;1.70;;
15228;SDS011;7717;47.792;12.076;2022-09-30T14:52:48;1.60;;;1.50;;
15228;SDS011;7717;47.792;12.076;2022-09-30T14:57:49;1.73;;;1.60;;
15228;SDS011;7717;47.792;12.076;2022-09-30T15:00:27;1.73;;;1.63;;
15228;SDS011;7717;47.792;12.076;2022-09-30T15:02:55;1.83;;;1.73;;
15228;SDS011;7717;47.792;12.076;2022-09-30T15:05:20;1.80;;;1.70;;
15228;SDS011;7717;47.792;12.076;2022-09-30T15:07:46;2.10;;;2.00;;
15228;SDS011;7717;47.792;12.076;2022-09-30T15:10:21;3.63;;;1.90;;
15228;SDS011;7717;47.792;12.076;2022-09-30T15:12:50;2.43;;;2.20;;
15228;SDS011;7717;47.792;12.076;2022-09-30T15:17:49;2.20;;;2.00;;
15228;SDS011;7717;47.792;12.076;2022-09-30T15:20:27;2.77;;;2.40;;
15228;SDS011;7717;47.792;12.076;2022-09-30T15:22:56;2.70;;;2.50;;
15228;SDS011;7717;47.792;12.076;2022-09-30T15:25:27;2.20;;;2.00;;
15228;SDS011;7717;47.792;12.076;2022-09-30T15:27:54;3.30;;;2.00;;
15228;SDS011;7717;47.792;12.076;2022-09-30T15:32:47;2.13;;;2.03;;
15228;SDS011;7717;47.792;12.076;2022-09-30T15:35:21;8.00;;;7.30;;
15228;SDS011;7717;47.792;12.076;2022-09-30T15:37:47;4.63;;;4.30;;
15228;SDS011;7717;47.792;12.076;2022-09-30T15:40:15;3.20;;;2.90;;
15228;SDS011;7717;47.792;12.076;2022-09-30T15:43:04;3.13;;;2.93;;
15228;SDS011;7717;47.792;12.076;2022-09-30T15:45:52;4.90;;;3.87;;
15228;SDS011;7717;47.792;12.076;2022-09-30T15:50:54;3.47;;;3.13;;
15228;SDS011;7717;47.792;12.076;2022-09-30T15:56:21;4.50;;;3.43;;
15228;SDS011;7717;47.792;12.076;2022-09-30T15:59:00;2.40;;;2.30;;
15228;SDS011;7717;47.792;12.076;2022-09-30T16:01:35;5.67;;;4.37;;
15228;SDS011;7717;47.792;12.076;2022-09-30T16:09:17;3.27;;;3.07;;
15228;SDS011;7717;47.792;12.076;2022-09-30T16:14:21;4.50;;;3.40;;
15228;SDS011;7717;47.792;12.076;2022-09-30T16:17:01;3.07;;;2.73;;
15228;SDS011;7717;47.792;12.076;2022-09-30T16:19:29;2.80;;;2.60;;
15228;SDS011;7717;47.792;12.076;2022-09-30T16:21:55;2.67;;;2.47;;
15228;SDS011;7717;47.792;12.076;2022-09-30T16:26:53;3.37;;;2.63;;
15228;SDS011;7717;47.792;12.076;2022-09-30T16:29:20;6.30;;;3.57;;
15228;SDS011;7717;47.792;12.076;2022-09-30T16:31:47;6.03;;;5.53;;
15228;SDS011;7717;47.792;12.076;2022-09-30T16:34:21;5.40;;;4.90;;
15228;SDS011;7717;47.792;12.076;2022-09-30T16:36:48;4.00;;;3.60;;
15228;SDS011;7717;47.792;12.076;2022-09-30T16:39:14;3.00;;;2.77;;
15228;SDS011;7717;47.792;12.076;2022-09-30T16:41:43;3.03;;;2.73;;
15228;SDS011;7717;47.792;12.076;2022-09-30T16:44:09;2.50;;;2.30;;
15228;SDS011;7717;47.792;12.076;2022-09-30T16:46:34;2.73;;;2.60;;
15228;SDS011;7717;47.792;12.076;2022-09-30T16:49:16;2.33;;;2.23;;
15228;SDS011;7717;47.792;12.076;2022-09-30T16:51:43;2.50;;;2.23;;
15228;SDS011;7717;47.792;12.076;2022-09-30T16:54:09;3.80;;;2.87;;
15228;SDS011;7717;47.792;12.076;2022-09-30T16:56:35;2.80;;;2.60;;
15228;SDS011;7717;47.792;12.076;2022-09-30T16:59:01;3.20;;;2.37;;
15228;SDS011;7717;47.792;12.076;2022-09-30T17:01:26;2.40;;;2.30;;
15228;SDS011;7717;47.792;12.076;2022-09-30T17:03:53;2.77;;;2.57;;
15228;SDS011;7717;47.792;12.076;2022-09-30T17:06:28;4.30;;;2.60;;
15228;SDS011;7717;47.792;12.076;2022-09-30T17:08:54;3.03;;;2.70;;
15228;SDS011;7717;47.792;12.076;2022-09-30T17:11:24;3.17;;;2.97;;
15228;SDS011;7717;47.792;12.076;2022-09-30T17:13:57;4.70;;;4.23;;
15228;SDS011;7717;47.792;12.076;2022-09-30T17:16:23;22.53;;;17.93;;
15228;SDS011;7717;47.792;12.076;2022-09-30T17:18:49;10.03;;;9.13;;
15228;SDS011;7717;47.792;12.076;2022-09-30T17:21:18;8.07;;;4.80;;
15228;SDS011;7717;47.792;12.076;2022-09-30T17:23:44;8.00;;;7.20;;
15228;SDS011;7717;47.792;12.076;2022-09-30T17:26:10;10.17;;;6.03;;
15228;SDS011;7717;47.792;12.076;2022-09-30T17:28:35;9.30;;;7.57;;
15228;SDS011;7717;47.792;12.076;2022-09-30T17:31:00;8.33;;;6.47;;
15228;SDS011;7717;47.792;12.076;2022-09-30T17:33:30;7.93;;;7.07;;
15228;SDS011;7717;47.792;12.076;2022-09-30T17:35:57;20.50;;;16.23;;
15228;SDS011;7717;47.792;12.076;2022-09-30T17:38:28;23.23;;;16.83;;
15228;SDS011;7717;47.792;12.076;2022-09-30T17:40:53;11.20;;;10.00;;
15228;SDS011;7717;47.792;12.076;2022-09-30T17:43:40;4.33;;;4.03;;
15228;SDS011;7717;47.792;12.076;2022-09-30T17:46:06;6.23;;;3.93;;
15228;SDS011;7717;47.792;12.076;2022-09-30T17:48:32;4.23;;;3.83;;
15228;SDS011;7717;47.792;12.076;2022-09-30T17:50:57;4.50;;;4.10;;
15228;SDS011;7717;47.792;12.076;2022-09-30T17:53:24;4.90;;;4.43;;
15228;SDS011;7717;47.792;12.076;2022-09-30T17:56:03;13.23;;;8.13;;
15228;SDS011;7717;47.792;12.076;2022-09-30T17:58:34;27.27;;;17.63;;
15228;SDS011;7717;47.792;12.076;2022-09-30T18:01:04;23.13;;;15.23;;
15228;SDS011;7717;47.792;12.076;2022-09-30T18:03:32;25.70;;;14.67;;
15228;SDS011;7717;47.792;12.076;2022-09-30T18:05:58;21.00;;;13.03;;
15228;SDS011;7717;47.792;12.076;2022-09-30T18:08:24;20.27;;;11.93;;
15228;SDS011;7717;47.792;12.076;2022-09-30T18:10:50;8.23;;;7.00;;
15228;SDS011;7717;47.792;12.076;2022-09-30T18:13:19;8.90;;;8.00;;
15228;SDS011;7717;47.792;12.076;2022-09-30T18:15:45;12.97;;;9.13;;
15228;SDS011;7717;47.792;12.076;2022-09-30T18:18:11;13.77;;;9.13;;
15228;SDS011;7717;47.792;12.076;2022-09-30T18:20:46;30.27;;;20.10;;
15228;SDS011;7717;47.792;12.076;2022-09-30T18:23:14;51.63;;;28.90;;
15228;SDS011;7717;47.792;12.076;2022-09-30T18:25:44;54.80;;;31.37;;
15228;SDS011;7717;47.792;12.076;2022-09-30T18:28:10;17.47;;;11.67;;
15228;SDS011;7717;47.792;12.076;2022-09-30T18:30:36;10.43;;;8.73;;
15228;SDS011;7717;47.792;12.076;2022-09-30T18:33:03;12.10;;;8.80;;
15228;SDS011;7717;47.792;12.076;2022-09-30T18:35:32;10.90;;;9.53;;
15228;SDS011;7717;47.792;12.076;2022-09-30T18:37:59;8.97;;;8.07;;
15228;SDS011;7717;47.792;12.076;2022-09-30T18:40:25;7.23;;;6.53;;
15228;SDS011;7717;47.792;12.076;2022-09-30T18:42:53;7.43;;;6.10;;
15228;SDS011;7717;47.792;12.076;2022-09-30T18:45:26;6.40;;;5.80;;
15228;SDS011;7717;47.792;12.076;2022-09-30T18:47:57;6.43;;;5.83;;
15228;SDS011;7717;47.792;12.076;2022-09-30T18:50:23;6.70;;;5.97;;
15228;SDS011;7717;47.792;12.076;2022-09-30T18:52:51;6.63;;;6.13;;
15228;SDS011;7717;47.792;12.076;2022-09-30T18:55:17;6.20;;;5.70;;
15228;SDS011;7717;47.792;12.076;2022-09-30T18:57:43;6.77;;;6.00;;
15228;SDS011;7717;47.792;12.076;2022-09-30T19:00:15;6.90;;;6.40;;
15228;SDS011;7717;47.792;12.076;2022-09-30T19:02:42;6.53;;;6.03;;
15228;SDS011;7717;47.792;12.076;2022-09-30T19:05:11;6.00;;;5.50;;
15228;SDS011;7717;47.792;12.076;2022-09-30T19:07:38;6.73;;;6.23;;
15228;SDS011;7717;47.792;12.076;2022-09-30T19:10:04;6.37;;;5.87;;
15228;SDS011;7717;47.792;12.076;2022-09-30T19:12:31;5.77;;;5.33;;
15228;SDS011;7717;47.792;12.076;2022-09-30T19:14:57;5.60;;;5.10;;
15228;SDS011;7717;47.792;12.076;2022-09-30T19:17:23;6.40;;;5.90;;
15228;SDS011;7717;47.792;12.076;2022-09-30T19:19:50;7.63;;;7.00;;
15228;SDS011;7717;47.792;12.076;2022-09-30T19:22:15;9.87;;;9.07;;